sensor_id;sensor_type;location;lat;lon;timestamp;pressure;altitude;pressure_sealevel;temperature;humidity
26657;BME280;14279;50.010;8.260;2022-09-28T00:00:03;98593.59;;;9.74;93.16
26657;BME280;14279;50.010;8.260;2022-09-28T00:02:30;98582.09;;;9.66;93.66
26657;BME280;14279;50.010;8.260;2022-09-28T00:04:55;98588.78;;;9.81;93.53
26657;BME280;14279;50.010;8.260;2022-09-28T00:07:20;98576.25;;;9.75;93.60
26657;BME280;14279;50.010;8.260;2022-09-28T00:09:45;98574.75;;;9.84;93.65
26657;BME280;14279;50.010;8.260;2022-09-28T00:12:11;98564.88;;;9.76;94.82
26657;BME280;14279;50.010;8.260;2022-09-28T00:14:36;98568.44;;;9.75;94.71
26657;BME280;14279;50.010;8.260;2022-09-28T00:17:01;98563.56;;;9.70;95.86
26657;BME280;14279;50.010;8.260;2022-09-28T00:19:27;98560.97;;;9.70;96.03
26657;BME280;14279;50.010;8.260;2022-09-28T00:21:52;98553.84;;;9.61;96.58
26657;BME280;14279;50.010;8.260;2022-09-28T00:24:17;98547.47;;;9.65;97.01
26657;BME280;14279;50.010;8.260;2022-09-28T00:26:46;98540.59;;;9.64;97.64
26657;BME280;14279;50.010;8.260;2022-09-28T00:29:22;98530.56;;;9.59;97.82
26657;BME280;14279;50.010;8.260;2022-09-28T00:31:51;98536.41;;;9.50;98.58
26657;BME280;14279;50.010;8.260;2022-09-28T00:34:17;98531.75;;;9.42;99.80
26657;BME280;14279;50.010;8.260;2022-09-28T00:36:44;98524.47;;;9.47;99.91
26657;BME280;14279;50.010;8.260;2022-09-28T00:39:10;98520.16;;;9.59;99.48
26657;BME280;14279;50.010;8.260;2022-09-28T00:41:36;98517.56;;;9.59;98.94
26657;BME280;14279;50.010;8.260;2022-09-28T00:50:09;98504.63;;;9.46;99.79
26657;BME280;14279;50.010;8.260;2022-09-28T00:53:01;98494.88;;;9.50;99.95
26657;BME280;14279;50.010;8.260;2022-09-28T00:58:02;98481.38;;;9.45;99.54
26657;BME280;14279;50.010;8.260;2022-09-28T01:00:29;98474.09;;;9.50;99.20
26657;BME280;14279;50.010;8.260;2022-09-28T01:02:54;98473.84;;;9.53;99.06
26657;BME280;14279;50.010;8.260;2022-09-28T01:05:20;98467.91;;;9.51;98.94
26657;BME280;14279;50.010;8.260;2022-09-28T01:07:47;98474.09;;;9.50;98.89
26657;BME280;14279;50.010;8.260;2022-09-28T01:10:13;98448.88;;;9.63;98.29
26657;BME280;14279;50.010;8.260;2022-09-28T01:12:38;98456.88;;;9.60;97.86
26657;BME280;14279;50.010;8.260;2022-09-28T01:15:04;98445.66;;;9.60;98.10
26657;BME280;14279;50.010;8.260;2022-09-28T01:18:04;98450.97;;;9.58;98.34
26657;BME280;14279;50.010;8.260;2022-09-28T01:20:50;98450.97;;;9.58;98.55
26657;BME280;14279;50.010;8.260;2022-09-28T01:28:41;98442.66;;;9.77;97.95
26657;BME280;14279;50.010;8.260;2022-09-28T01:31:12;98445.03;;;9.81;97.35
26657;BME280;14279;50.010;8.260;2022-09-28T01:33:49;98438.19;;;9.80;97.41
26657;BME280;14279;50.010;8.260;2022-09-28T01:36:21;98446.91;;;9.78;96.89
26657;BME280;14279;50.010;8.260;2022-09-28T01:38:54;98449.53;;;9.90;97.51
26657;BME280;14279;50.010;8.260;2022-09-28T01:41:23;98439.84;;;9.81;96.99
26657;BME280;14279;50.010;8.260;2022-09-28T01:43:54;98438.09;;;9.92;97.00
26657;BME280;14279;50.010;8.260;2022-09-28T01:46:22;98432.63;;;9.84;96.41
26657;BME280;14279;50.010;8.260;2022-09-28T01:48:56;98428.88;;;9.88;96.01
26657;BME280;14279;50.010;8.260;2022-09-28T01:51:31;98430.97;;;9.83;96.18
26657;BME280;14279;50.010;8.260;2022-09-28T01:54:02;98428.16;;;9.86;96.28
26657;BME280;14279;50.010;8.260;2022-09-28T01:56:35;98429.84;;;9.99;96.37
26657;BME280;14279;50.010;8.260;2022-09-28T01:59:15;98430.53;;;10.01;95.74
26657;BME280;14279;50.010;8.260;2022-09-28T02:02:14;98430.06;;;9.96;96.00
26657;BME280;14279;50.010;8.260;2022-09-28T02:04:52;98452.81;;;9.81;95.71
26657;BME280;14279;50.010;8.260;2022-09-28T02:07:35;98441.88;;;9.64;96.05
26657;BME280;14279;50.010;8.260;2022-09-28T02:10:08;98453.13;;;9.65;96.94
26657;BME280;14279;50.010;8.260;2022-09-28T02:12:39;98452.34;;;9.51;94.83
26657;BME280;14279;50.010;8.260;2022-09-28T02:15:16;98434.66;;;9.56;92.79
26657;BME280;14279;50.010;8.260;2022-09-28T02:17:43;98437.97;;;9.83;92.22
26657;BME280;14279;50.010;8.260;2022-09-28T02:20:09;98430.69;;;9.63;93.17
26657;BME280;14279;50.010;8.260;2022-09-28T02:22:40;98434.41;;;9.48;93.96
26657;BME280;14279;50.010;8.260;2022-09-28T02:25:09;98431.75;;;9.37;95.48
26657;BME280;14279;50.010;8.260;2022-09-28T02:27:47;98425.91;;;9.09;97.42
26657;BME280;14279;50.010;8.260;2022-09-28T02:30:14;98426.09;;;8.94;99.81
26657;BME280;14279;50.010;8.260;2022-09-28T02:32:44;98414.75;;;8.95;99.94
26657;BME280;14279;50.010;8.260;2022-09-28T02:35:13;98419.13;;;8.95;100.00
26657;BME280;14279;50.010;8.260;2022-09-28T02:37:39;98413.19;;;8.93;100.00
26657;BME280;14279;50.010;8.260;2022-09-28T02:40:27;98418.09;;;8.97;100.00
26657;BME280;14279;50.010;8.260;2022-09-28T02:43:13;98410.94;;;8.88;100.00
26657;BME280;14279;50.010;8.260;2022-09-28T02:48:48;98408.28;;;8.77;100.00
26657;BME280;14279;50.010;8.260;2022-09-28T02:51:49;98403.06;;;8.90;100.00
26657;BME280;14279;50.010;8.260;2022-09-28T02:54:25;98405.53;;;8.91;100.00
26657;BME280;14279;50.010;8.260;2022-09-28T02:56:58;98415.09;;;8.91;100.00
26657;BME280;14279;50.010;8.260;2022-09-28T03:02:06;98416.81;;;9.03;100.00
26657;BME280;14279;50.010;8.260;2022-09-28T03:09:58;98405.94;;;8.98;100.00
26657;BME280;14279;50.010;8.260;2022-09-28T03:12:27;98409.03;;;9.03;100.00
26657;BME280;14279;50.010;8.260;2022-09-28T03:17:44;98410.94;;;8.88;100.00
26657;BME280;14279;50.010;8.260;2022-09-28T03:20:10;98417.41;;;8.82;100.00
26657;BME280;14279;50.010;8.260;2022-09-28T03:22:35;98412.63;;;8.76;100.00
26657;BME280;14279;50.010;8.260;2022-09-28T03:25:01;98408.38;;;8.75;100.00
26657;BME280;14279;50.010;8.260;2022-09-28T03:27:26;98415.81;;;8.80;100.00
26657;BME280;14279;50.010;8.260;2022-09-28T03:29:51;98418.22;;;8.83;100.00
26657;BME280;14279;50.010;8.260;2022-09-28T03:32:16;98417.00;;;8.76;100.00
26657;BME280;14279;50.010;8.260;2022-09-28T03:34:42;98413.34;;;8.78;100.00
26657;BME280;14279;50.010;8.260;2022-09-28T03:37:07;98412.53;;;8.78;100.00
26657;BME280;14279;50.010;8.260;2022-09-28T03:39:32;98408.16;;;8.78;100.00
26657;BME280;14279;50.010;8.260;2022-09-28T03:42:00;98412.94;;;8.84;100.00
26657;BME280;14279;50.010;8.260;2022-09-28T03:44:26;98403.06;;;8.90;100.00
26657;BME280;14279;50.010;8.260;2022-09-28T03:46:51;98404.72;;;8.91;100.00
26657;BME280;14279;50.010;8.260;2022-09-28T03:49:16;98400.78;;;8.85;100.00
26657;BME280;14279;50.010;8.260;2022-09-28T03:51:42;98400.59;;;8.75;100.00
26657;BME280;14279;50.010;8.260;2022-09-28T03:54:07;98401.91;;;8.81;100.00
26657;BME280;14279;50.010;8.260;2022-09-28T03:56:32;98400.06;;;8.70;99.70
26657;BME280;14279;50.010;8.260;2022-09-28T03:58:57;98397.41;;;8.71;99.84
26657;BME280;14279;50.010;8.260;2022-09-28T04:01:23;98400.53;;;8.64;99.16
26657;BME280;14279;50.010;8.260;2022-09-28T04:03:52;98409.13;;;8.64;99.39
26657;BME280;14279;50.010;8.260;2022-09-28T04:06:20;98407.38;;;8.65;98.60
26657;BME280;14279;50.010;8.260;2022-09-28T04:08:45;98416.38;;;8.72;98.70
26657;BME280;14279;50.010;8.260;2022-09-28T04:11:10;98417.00;;;8.76;97.42
26657;BME280;14279;50.010;8.260;2022-09-28T04:13:35;98415.22;;;8.76;95.66
26657;BME280;14279;50.010;8.260;2022-09-28T04:16:01;98425.06;;;8.84;94.69
26657;BME280;14279;50.010;8.260;2022-09-28T04:18:28;98414.88;;;8.81;94.26
26657;BME280;14279;50.010;8.260;2022-09-28T04:21:03;98428.47;;;8.97;94.49
26657;BME280;14279;50.010;8.260;2022-09-28T04:23:33;98425.06;;;8.84;93.99
26657;BME280;14279;50.010;8.260;2022-09-28T04:25:59;98428.06;;;8.91;93.48
26657;BME280;14279;50.010;8.260;2022-09-28T04:28:25;98424.50;;;8.92;92.99
26657;BME280;14279;50.010;8.260;2022-09-28T04:31:11;98420.78;;;8.96;92.09
26657;BME280;14279;50.010;8.260;2022-09-28T04:33:37;98420.91;;;8.94;90.90
26657;BME280;14279;50.010;8.260;2022-09-28T04:36:02;98425.56;;;8.89;90.50
26657;BME280;14279;50.010;8.260;2022-09-28T04:38:28;98424.63;;;8.90;90.75
26657;BME280;14279;50.010;8.260;2022-09-28T04:40:53;98421.84;;;8.93;90.03
26657;BME280;14279;50.010;8.260;2022-09-28T04:43:19;98423.56;;;8.93;88.83
26657;BME280;14279;50.010;8.260;2022-09-28T04:45:44;98422.22;;;9.00;88.83
26657;BME280;14279;50.010;8.260;2022-09-28T04:48:09;98429.50;;;8.95;89.41
26657;BME280;14279;50.010;8.260;2022-09-28T04:50:34;98425.97;;;8.96;89.16
26657;BME280;14279;50.010;8.260;2022-09-28T04:53:00;98433.53;;;8.99;89.43
26657;BME280;14279;50.010;8.260;2022-09-28T04:55:26;98436.03;;;9.00;89.30
26657;BME280;14279;50.010;8.260;2022-09-28T04:58:14;98438.72;;;8.99;88.89
26657;BME280;14279;50.010;8.260;2022-09-28T05:00:39;98438.72;;;8.99;89.57
26657;BME280;14279;50.010;8.260;2022-09-28T05:03:04;98441.25;;;8.87;88.62
26657;BME280;14279;50.010;8.260;2022-09-28T05:05:29;98444.28;;;8.81;89.75
26657;BME280;14279;50.010;8.260;2022-09-28T05:07:58;98441.28;;;8.75;89.83
26657;BME280;14279;50.010;8.260;2022-09-28T05:10:23;98442.44;;;8.70;90.11
26657;BME280;14279;50.010;8.260;2022-09-28T05:12:48;98448.88;;;8.78;90.35
26657;BME280;14279;50.010;8.260;2022-09-28T05:15:14;98451.88;;;8.71;90.25
26657;BME280;14279;50.010;8.260;2022-09-28T05:17:39;98450.00;;;8.74;90.51
26657;BME280;14279;50.010;8.260;2022-09-28T05:20:04;98451.66;;;8.75;90.44
26657;BME280;14279;50.010;8.260;2022-09-28T05:22:31;98455.50;;;8.69;90.55
26657;BME280;14279;50.010;8.260;2022-09-28T05:24:56;98449.38;;;8.70;90.04
26657;BME280;14279;50.010;8.260;2022-09-28T05:27:23;98454.56;;;8.70;89.80
26657;BME280;14279;50.010;8.260;2022-09-28T05:29:48;98454.56;;;8.70;89.77
26657;BME280;14279;50.010;8.260;2022-09-28T05:32:13;98459.25;;;8.65;89.90
26657;BME280;14279;50.010;8.260;2022-09-28T05:34:40;98453.81;;;8.68;87.69
26657;BME280;14279;50.010;8.260;2022-09-28T05:37:05;98462.44;;;8.81;88.25
26657;BME280;14279;50.010;8.260;2022-09-28T05:39:31;98463.38;;;8.80;87.89
26657;BME280;14279;50.010;8.260;2022-09-28T05:41:56;98466.56;;;8.84;87.52
26657;BME280;14279;50.010;8.260;2022-09-28T05:44:22;98467.50;;;8.83;87.51
26657;BME280;14279;50.010;8.260;2022-09-28T05:46:47;98471.22;;;8.92;86.83
26657;BME280;14279;50.010;8.260;2022-09-28T05:49:12;98481.50;;;8.93;86.75
26657;BME280;14279;50.010;8.260;2022-09-28T05:51:38;98472.50;;;8.86;86.46
26657;BME280;14279;50.010;8.260;2022-09-28T05:54:03;98468.41;;;8.95;85.87
26657;BME280;14279;50.010;8.260;2022-09-28T05:56:29;98475.44;;;9.06;85.45
26657;BME280;14279;50.010;8.260;2022-09-28T05:58:55;98482.84;;;8.99;85.51
26657;BME280;14279;50.010;8.260;2022-09-28T06:01:22;98474.63;;;9.05;85.65
26657;BME280;14279;50.010;8.260;2022-09-28T06:03:47;98477.88;;;8.96;85.23
26657;BME280;14279;50.010;8.260;2022-09-28T06:06:13;98484.31;;;8.90;85.38
26657;BME280;14279;50.010;8.260;2022-09-28T06:08:38;98486.09;;;8.90;85.62
26657;BME280;14279;50.010;8.260;2022-09-28T06:11:06;98482.97;;;8.97;84.55
26657;BME280;14279;50.010;8.260;2022-09-28T06:13:32;98487.94;;;9.00;84.75
26657;BME280;14279;50.010;8.260;2022-09-28T06:15:57;98488.16;;;8.97;84.11
26657;BME280;14279;50.010;8.260;2022-09-28T06:18:22;98492.41;;;8.98;84.37
26657;BME280;14279;50.010;8.260;2022-09-28T06:20:47;98494.38;;;8.95;84.17
26657;BME280;14279;50.010;8.260;2022-09-28T06:23:13;98496.66;;;8.99;84.07
26657;BME280;14279;50.010;8.260;2022-09-28T06:25:38;98493.88;;;9.02;85.58
26657;BME280;14279;50.010;8.260;2022-09-28T06:28:06;98499.88;;;9.03;85.26
26657;BME280;14279;50.010;8.260;2022-09-28T06:30:34;98512.31;;;9.11;84.75
26657;BME280;14279;50.010;8.260;2022-09-28T06:33:04;98506.69;;;9.17;84.10
26657;BME280;14279;50.010;8.260;2022-09-28T06:35:30;98507.13;;;9.11;84.55
26657;BME280;14279;50.010;8.260;2022-09-28T06:38:00;98511.75;;;9.18;83.85
26657;BME280;14279;50.010;8.260;2022-09-28T06:40:26;98515.22;;;9.06;83.61
26657;BME280;14279;50.010;8.260;2022-09-28T06:43:03;98519.28;;;9.10;84.09
26657;BME280;14279;50.010;8.260;2022-09-28T06:45:34;98524.88;;;9.17;84.00
26657;BME280;14279;50.010;8.260;2022-09-28T06:48:00;98511.97;;;9.15;84.19
26657;BME280;14279;50.010;8.260;2022-09-28T06:50:28;98521.25;;;9.07;84.81
26657;BME280;14279;50.010;8.260;2022-09-28T06:52:56;98520.00;;;9.12;84.17
26657;BME280;14279;50.010;8.260;2022-09-28T06:55:21;98533.72;;;9.14;82.28
26657;BME280;14279;50.010;8.260;2022-09-28T06:57:55;98532.97;;;9.12;83.06
26657;BME280;14279;50.010;8.260;2022-09-28T07:00:22;98537.44;;;9.23;82.30
26657;BME280;14279;50.010;8.260;2022-09-28T07:02:47;98530.25;;;9.27;82.11
26657;BME280;14279;50.010;8.260;2022-09-28T07:05:12;98547.06;;;9.34;81.97
26657;BME280;14279;50.010;8.260;2022-09-28T07:07:38;98541.31;;;9.42;81.35
26657;BME280;14279;50.010;8.260;2022-09-28T07:10:05;98540.16;;;9.46;80.78
26657;BME280;14279;50.010;8.260;2022-09-28T07:12:30;98542.84;;;9.44;80.10
26657;BME280;14279;50.010;8.260;2022-09-28T07:14:56;98551.63;;;9.68;80.63
26657;BME280;14279;50.010;8.260;2022-09-28T07:17:22;98545.63;;;9.54;80.05
26657;BME280;14279;50.010;8.260;2022-09-28T07:19:48;98550.09;;;9.52;79.97
26657;BME280;14279;50.010;8.260;2022-09-28T07:22:17;98560.16;;;9.70;79.05
26657;BME280;14279;50.010;8.260;2022-09-28T07:24:43;98557.81;;;9.78;79.87
26657;BME280;14279;50.010;8.260;2022-09-28T07:27:08;98562.97;;;9.67;79.73
26657;BME280;14279;50.010;8.260;2022-09-28T07:29:34;98567.44;;;9.89;79.89
26657;BME280;14279;50.010;8.260;2022-09-28T07:31:59;98570.59;;;10.05;79.43
26657;BME280;14279;50.010;8.260;2022-09-28T07:34:24;98570.38;;;10.08;78.13
26657;BME280;14279;50.010;8.260;2022-09-28T07:36:49;98587.28;;;10.14;77.85
26657;BME280;14279;50.010;8.260;2022-09-28T07:39:15;98589.91;;;10.26;77.09
26657;BME280;14279;50.010;8.260;2022-09-28T07:41:41;98585.75;;;10.47;76.87
26657;BME280;14279;50.010;8.260;2022-09-28T07:44:07;98586.44;;;10.14;75.57
26657;BME280;14279;50.010;8.260;2022-09-28T07:46:35;98596.09;;;10.00;76.14
26657;BME280;14279;50.010;8.260;2022-09-28T07:49:01;98602.50;;;9.83;74.78
26657;BME280;14279;50.010;8.260;2022-09-28T07:51:29;98595.19;;;10.13;75.62
26657;BME280;14279;50.010;8.260;2022-09-28T07:53:54;98607.81;;;10.30;74.98
26657;BME280;14279;50.010;8.260;2022-09-28T07:56:20;98618.81;;;10.34;75.48
26657;BME280;14279;50.010;8.260;2022-09-28T07:58:46;98618.00;;;10.33;75.00
26657;BME280;14279;50.010;8.260;2022-09-28T08:01:12;98620.88;;;10.17;75.13
26657;BME280;14279;50.010;8.260;2022-09-28T08:03:42;98616.63;;;10.16;75.87
26657;BME280;14279;50.010;8.260;2022-09-28T08:06:12;98624.47;;;10.03;76.37
26657;BME280;14279;50.010;8.260;2022-09-28T08:08:38;98621.91;;;10.15;75.49
26657;BME280;14279;50.010;8.260;2022-09-28T08:11:08;98623.41;;;10.30;75.47
26657;BME280;14279;50.010;8.260;2022-09-28T08:13:34;98633.09;;;10.52;75.44
26657;BME280;14279;50.010;8.260;2022-09-28T08:16:00;98638.00;;;10.68;73.73
26657;BME280;14279;50.010;8.260;2022-09-28T08:18:26;98636.78;;;10.61;73.73
26657;BME280;14279;50.010;8.260;2022-09-28T08:20:51;98636.84;;;10.84;72.62
26657;BME280;14279;50.010;8.260;2022-09-28T08:23:35;98633.91;;;10.89;71.58
26657;BME280;14279;50.010;8.260;2022-09-28T08:26:06;98633.09;;;11.00;72.40
26657;BME280;14279;50.010;8.260;2022-09-28T08:28:39;98636.28;;;11.03;70.99
26657;BME280;14279;50.010;8.260;2022-09-28T08:31:04;98649.44;;;11.13;69.57
26657;BME280;14279;50.010;8.260;2022-09-28T08:33:32;98658.50;;;10.85;69.69
26657;BME280;14279;50.010;8.260;2022-09-28T08:35:59;98654.72;;;10.89;69.20
26657;BME280;14279;50.010;8.260;2022-09-28T08:38:26;98670.66;;;10.73;68.78
26657;BME280;14279;50.010;8.260;2022-09-28T08:43:44;98660.38;;;10.82;68.66
26657;BME280;14279;50.010;8.260;2022-09-28T08:46:14;98664.06;;;10.91;67.94
26657;BME280;14279;50.010;8.260;2022-09-28T08:48:51;98668.25;;;10.58;67.19
26657;BME280;14279;50.010;8.260;2022-09-28T08:51:19;98665.09;;;10.66;68.15
26657;BME280;14279;50.010;8.260;2022-09-28T08:54:03;98668.28;;;10.70;68.21
26657;BME280;14279;50.010;8.260;2022-09-28T08:56:38;98665.44;;;10.73;67.55
26657;BME280;14279;50.010;8.260;2022-09-28T08:59:11;98662.88;;;10.84;67.79
26657;BME280;14279;50.010;8.260;2022-09-28T09:01:43;98668.25;;;11.05;66.98
26657;BME280;14279;50.010;8.260;2022-09-28T09:04:11;98657.97;;;11.04;65.16
26657;BME280;14279;50.010;8.260;2022-09-28T09:15:36;98666.25;;;11.32;65.30
26657;BME280;14279;50.010;8.260;2022-09-28T09:18:16;98680.97;;;11.55;64.50
26657;BME280;14279;50.010;8.260;2022-09-28T09:20:57;98689.13;;;11.51;63.76
26657;BME280;14279;50.010;8.260;2022-09-28T09:23:38;98678.34;;;11.67;62.55
26657;BME280;14279;50.010;8.260;2022-09-28T09:26:18;98679.84;;;11.92;62.00
26657;BME280;14279;50.010;8.260;2022-09-28T09:29:04;98675.63;;;11.91;62.66
26657;BME280;14279;50.010;8.260;2022-09-28T09:34:28;98671.34;;;11.79;63.54
26657;BME280;14279;50.010;8.260;2022-09-28T09:39:39;98682.25;;;12.07;63.37
26657;BME280;14279;50.010;8.260;2022-09-28T09:47:57;98671.44;;;12.11;62.57
26657;BME280;14279;50.010;8.260;2022-09-28T09:50:26;98676.66;;;12.23;62.24
26657;BME280;14279;50.010;8.260;2022-09-28T09:55:46;98683.56;;;11.67;62.77
26657;BME280;14279;50.010;8.260;2022-09-28T09:58:22;98687.00;;;11.79;62.61
26657;BME280;14279;50.010;8.260;2022-09-28T10:00:53;98683.44;;;11.68;63.01
26657;BME280;14279;50.010;8.260;2022-09-28T10:03:26;98690.91;;;11.73;62.90
26657;BME280;14279;50.010;8.260;2022-09-28T10:05:58;98689.13;;;11.85;62.58
26657;BME280;14279;50.010;8.260;2022-09-28T10:08:25;98686.72;;;11.93;61.57
26657;BME280;14279;50.010;8.260;2022-09-28T10:11:00;98680.06;;;12.35;60.83
26657;BME280;14279;50.010;8.260;2022-09-28T10:13:29;98677.16;;;11.94;61.09
26657;BME280;14279;50.010;8.260;2022-09-28T10:15:56;98693.97;;;11.90;61.50
26657;BME280;14279;50.010;8.260;2022-09-28T10:18:21;98685.69;;;12.07;60.69
26657;BME280;14279;50.010;8.260;2022-09-28T10:20:47;98687.31;;;12.20;59.81
26657;BME280;14279;50.010;8.260;2022-09-28T10:23:19;98687.97;;;12.44;60.07
26657;BME280;14279;50.010;8.260;2022-09-28T10:25:49;98690.25;;;12.70;58.75
26657;BME280;14279;50.010;8.260;2022-09-28T10:28:21;98687.88;;;12.67;59.38
26657;BME280;14279;50.010;8.260;2022-09-28T10:30:49;98686.94;;;12.36;59.06
26657;BME280;14279;50.010;8.260;2022-09-28T10:33:31;98702.22;;;12.29;60.06
26657;BME280;14279;50.010;8.260;2022-09-28T10:36:00;98701.47;;;12.50;59.67
26657;BME280;14279;50.010;8.260;2022-09-28T10:38:29;98705.38;;;12.44;59.97
26657;BME280;14279;50.010;8.260;2022-09-28T10:41:00;98711.66;;;12.53;59.43
26657;BME280;14279;50.010;8.260;2022-09-28T10:43:29;98709.91;;;12.42;59.45
26657;BME280;14279;50.010;8.260;2022-09-28T10:46:04;98715.03;;;12.65;59.80
26657;BME280;14279;50.010;8.260;2022-09-28T10:48:45;98715.91;;;12.54;59.39
26657;BME280;14279;50.010;8.260;2022-09-28T10:51:12;98710.41;;;12.36;59.98
26657;BME280;14279;50.010;8.260;2022-09-28T10:53:37;98719.19;;;12.35;59.97
26657;BME280;14279;50.010;8.260;2022-09-28T10:56:17;98716.34;;;12.26;60.16
26657;BME280;14279;50.010;8.260;2022-09-28T10:58:43;98715.03;;;12.65;59.67
26657;BME280;14279;50.010;8.260;2022-09-28T11:01:24;98720.75;;;12.91;58.48
26657;BME280;14279;50.010;8.260;2022-09-28T11:03:58;98713.00;;;13.22;57.96
26657;BME280;14279;50.010;8.260;2022-09-28T11:06:27;98713.81;;;13.22;57.75
26657;BME280;14279;50.010;8.260;2022-09-28T11:09:00;98701.72;;;13.43;57.04
26657;BME280;14279;50.010;8.260;2022-09-28T11:11:25;98702.28;;;13.77;56.27
26657;BME280;14279;50.010;8.260;2022-09-28T11:13:56;98702.16;;;13.89;55.79
26657;BME280;14279;50.010;8.260;2022-09-28T11:16:27;98705.97;;;13.75;55.55
26657;BME280;14279;50.010;8.260;2022-09-28T11:18:54;98706.53;;;13.68;54.70
26657;BME280;14279;50.010;8.260;2022-09-28T11:21:23;98699.97;;;13.53;55.54
26657;BME280;14279;50.010;8.260;2022-09-28T11:24:00;98695.97;;;13.28;56.32
26657;BME280;14279;50.010;8.260;2022-09-28T11:26:33;98693.03;;;13.73;55.62
26657;BME280;14279;50.010;8.260;2022-09-28T11:29:00;98688.41;;;13.46;53.95
26657;BME280;14279;50.010;8.260;2022-09-28T11:31:27;98691.00;;;13.46;55.34
26657;BME280;14279;50.010;8.260;2022-09-28T11:34:20;98690.09;;;13.57;54.21
26657;BME280;14279;50.010;8.260;2022-09-28T11:47:50;98684.50;;;13.71;52.04
26657;BME280;14279;50.010;8.260;2022-09-28T11:50:29;98680.22;;;13.70;52.04
26657;BME280;14279;50.010;8.260;2022-09-28T11:56:13;98682.78;;;13.50;52.51
26657;BME280;14279;50.010;8.260;2022-09-28T11:58:43;98696.13;;;13.05;53.33
26657;BME280;14279;50.010;8.260;2022-09-28T12:01:30;98690.84;;;12.95;52.81
26657;BME280;14279;50.010;8.260;2022-09-28T12:04:17;98695.03;;;13.07;53.80
26657;BME280;14279;50.010;8.260;2022-09-28T12:06:49;98698.59;;;13.06;53.50
26657;BME280;14279;50.010;8.260;2022-09-28T12:09:23;98699.03;;;12.90;54.13
26657;BME280;14279;50.010;8.260;2022-09-28T12:11:55;98699.84;;;13.12;53.52
26657;BME280;14279;50.010;8.260;2022-09-28T12:14:28;98695.66;;;13.00;54.11
26657;BME280;14279;50.010;8.260;2022-09-28T12:17:20;98700.88;;;13.00;54.15
26657;BME280;14279;50.010;8.260;2022-09-28T12:19:55;98691.06;;;13.13;53.91
26657;BME280;14279;50.010;8.260;2022-09-28T12:22:31;98690.94;;;12.93;54.66
26657;BME280;14279;50.010;8.260;2022-09-28T12:24:57;98699.28;;;13.08;54.77
26657;BME280;14279;50.010;8.260;2022-09-28T12:27:39;98691.00;;;13.46;54.05
26657;BME280;14279;50.010;8.260;2022-09-28T12:30:19;98698.50;;;14.01;53.60
26657;BME280;14279;50.010;8.260;2022-09-28T12:38:37;98685.59;;;14.19;53.46
26657;BME280;14279;50.010;8.260;2022-09-28T12:41:18;98690.16;;;13.76;54.53
26657;BME280;14279;50.010;8.260;2022-09-28T12:51:58;98696.56;;;13.10;55.15
26657;BME280;14279;50.010;8.260;2022-09-28T12:57:53;98698.06;;;13.34;54.92
26657;BME280;14279;50.010;8.260;2022-09-28T13:00:22;98691.81;;;13.46;54.75
26657;BME280;14279;50.010;8.260;2022-09-28T13:03:10;98697.00;;;13.15;54.70
26657;BME280;14279;50.010;8.260;2022-09-28T13:09:03;98696.78;;;13.49;53.59
26657;BME280;14279;50.010;8.260;2022-09-28T13:11:39;98696.78;;;13.49;53.46
26657;BME280;14279;50.010;8.260;2022-09-28T13:19:57;98693.78;;;13.54;53.94
26657;BME280;14279;50.010;8.260;2022-09-28T13:22:46;98693.66;;;13.56;54.00
26657;BME280;14279;50.010;8.260;2022-09-28T13:25:16;98691.19;;;13.95;53.48
26657;BME280;14279;50.010;8.260;2022-09-28T13:27:47;98697.03;;;14.18;52.15
26657;BME280;14279;50.010;8.260;2022-09-28T13:30:15;98697.81;;;13.99;53.06
26657;BME280;14279;50.010;8.260;2022-09-28T13:32:44;98684.25;;;13.84;53.84
26657;BME280;14279;50.010;8.260;2022-09-28T13:35:15;98690.03;;;13.78;53.13
26657;BME280;14279;50.010;8.260;2022-09-28T13:37:43;98692.03;;;13.95;52.68
26657;BME280;14279;50.010;8.260;2022-09-28T13:40:09;98695.22;;;14.19;52.75
26657;BME280;14279;50.010;8.260;2022-09-28T13:53:49;98694.00;;;14.23;51.27
26657;BME280;14279;50.010;8.260;2022-09-28T13:59:14;98695.66;;;14.43;51.20
26657;BME280;14279;50.010;8.260;2022-09-28T14:01:53;98688.94;;;14.41;50.92
26657;BME280;14279;50.010;8.260;2022-09-28T14:04:24;98691.41;;;14.62;50.38
26657;BME280;14279;50.010;8.260;2022-09-28T14:10:19;98684.50;;;14.51;50.43
26657;BME280;14279;50.010;8.260;2022-09-28T14:12:48;98689.91;;;14.50;50.50
26657;BME280;14279;50.010;8.260;2022-09-28T14:20:33;98700.91;;;14.63;50.71
26657;BME280;14279;50.010;8.260;2022-09-28T14:23:26;98697.03;;;14.28;51.37
26657;BME280;14279;50.010;8.260;2022-09-28T14:26:05;98706.50;;;14.09;51.70
26657;BME280;14279;50.010;8.260;2022-09-28T14:29:00;98698.81;;;14.27;51.64
26657;BME280;14279;50.010;8.260;2022-09-28T14:31:29;98704.19;;;14.16;51.33
26657;BME280;14279;50.010;8.260;2022-09-28T14:33:56;98702.88;;;13.91;52.37
26657;BME280;14279;50.010;8.260;2022-09-28T14:36:28;98697.84;;;14.28;51.50
26657;BME280;14279;50.010;8.260;2022-09-28T14:39:44;98697.41;;;14.13;50.75
26657;BME280;14279;50.010;8.260;2022-09-28T14:42:28;98702.97;;;14.40;51.11
26657;BME280;14279;50.010;8.260;2022-09-28T14:47:43;98697.66;;;14.01;52.83
26657;BME280;14279;50.010;8.260;2022-09-28T14:50:26;98710.06;;;14.08;52.20
26657;BME280;14279;50.010;8.260;2022-09-28T14:53:03;98703.22;;;14.07;51.78
26657;BME280;14279;50.010;8.260;2022-09-28T14:55:40;98700.72;;;14.16;51.83
26657;BME280;14279;50.010;8.260;2022-09-28T14:58:14;98706.44;;;13.90;52.01
26657;BME280;14279;50.010;8.260;2022-09-28T15:00:42;98704.31;;;14.15;52.79
26657;BME280;14279;50.010;8.260;2022-09-28T15:03:09;98717.66;;;14.11;52.48
26657;BME280;14279;50.010;8.260;2022-09-28T15:05:45;98712.69;;;14.08;52.40
26657;BME280;14279;50.010;8.260;2022-09-28T15:08:13;98707.03;;;14.03;52.16
26657;BME280;14279;50.010;8.260;2022-09-28T15:10:44;98717.72;;;14.31;51.90
26657;BME280;14279;50.010;8.260;2022-09-28T15:13:23;98713.13;;;14.13;51.71
26657;BME280;14279;50.010;8.260;2022-09-28T15:15:58;98715.19;;;14.10;52.15
26657;BME280;14279;50.010;8.260;2022-09-28T15:21:17;98717.03;;;14.39;52.03
26657;BME280;14279;50.010;8.260;2022-09-28T15:23:43;98706.66;;;14.27;51.90